createdAt,value
2019-02-08T00:00:15.370Z,65.3
2019-02-08T00:00:56.007Z,65.01
2019-02-08T00:01:36.693Z,65.39
2019-02-08T00:02:18.428Z,65.3
2019-02-08T00:02:59.051Z,65.2
2019-02-08T00:03:39.699Z,65.3
2019-02-08T00:04:20.345Z,65.2
2019-02-08T00:05:00.986Z,65.3
2019-02-08T00:05:41.669Z,65.2
2019-02-08T00:06:22.262Z,65.3
2019-02-08T00:07:02.915Z,65.2
2019-02-08T00:07:43.554Z,65.11
2019-02-08T00:08:24.229Z,65.11
2019-02-08T00:09:04.889Z,65.3
2019-02-08T00:09:45.617Z,65.11
2019-02-08T00:10:26.293Z,65.3
2019-02-08T00:11:06.960Z,65.78
2019-02-08T00:11:47.645Z,65.11
2019-02-08T00:12:28.239Z,65.59
2019-02-08T00:13:09.835Z,65.11
2019-02-08T00:13:50.484Z,65.11
2019-02-08T00:14:31.161Z,65.11
2019-02-08T00:15:11.796Z,65.39
2019-02-08T00:15:52.440Z,65.39
2019-02-08T00:16:33.078Z,65.39
2019-02-08T00:17:13.728Z,65.49
2019-02-08T00:17:54.356Z,65.59
2019-02-08T00:18:35.016Z,65.49
2019-02-08T00:19:15.666Z,65.59
2019-02-08T00:19:56.317Z,65.39
2019-02-08T00:20:36.957Z,65.11
2019-02-08T00:21:17.596Z,65.49
2019-02-08T00:21:58.238Z,65.39
2019-02-08T00:22:38.900Z,65.59
2019-02-08T00:23:26.457Z,65.39
2019-02-08T00:24:00.165Z,65.39
2019-02-08T00:24:40.809Z,65.39
2019-02-08T00:25:21.418Z,65.49
2019-02-08T00:26:02.063Z,65.39
2019-02-08T00:26:42.659Z,65.49
2019-02-08T00:27:23.267Z,65.3
2019-02-08T00:28:03.867Z,65.2
2019-02-08T00:28:44.485Z,65.49
2019-02-08T00:29:25.077Z,65.2
2019-02-08T00:30:05.719Z,65.01
2019-02-08T00:30:46.329Z,65.2
2019-02-08T00:31:26.969Z,65.68
2019-02-08T00:32:07.614Z,65.49
2019-02-08T00:32:48.235Z,65.01
2019-02-08T00:33:28.839Z,65.59
2019-02-08T00:34:09.461Z,65.01
2019-02-08T00:34:50.091Z,65.3
2019-02-08T00:35:30.695Z,65.01
2019-02-08T00:36:11.309Z,65.11
2019-02-08T00:36:51.909Z,65.49
2019-02-08T00:37:32.527Z,65.2
2019-02-08T00:38:13.129Z,65.01
2019-02-08T00:38:53.737Z,65.39
2019-02-08T00:39:34.326Z,65.01
2019-02-08T00:40:14.953Z,64.82
2019-02-08T00:40:55.597Z,64.82
2019-02-08T00:41:36.213Z,64.72
2019-02-08T00:42:16.829Z,64.82
2019-02-08T00:42:57.487Z,64.82
2019-02-08T00:43:38.099Z,65.3
2019-02-08T00:44:18.696Z,64.82
2019-02-08T00:44:59.315Z,65.3
2019-02-08T00:45:39.907Z,65.11
2019-02-08T00:46:20.517Z,65.2
2019-02-08T00:47:01.158Z,64.82
2019-02-08T00:47:41.753Z,64.82
2019-02-08T00:48:22.355Z,65.01
2019-02-08T00:49:02.951Z,64.92
2019-02-08T00:49:43.566Z,65.01
2019-02-08T00:50:24.189Z,64.63
2019-02-08T00:51:04.799Z,65.59
2019-02-08T00:51:45.405Z,65.49
2019-02-08T00:52:26.011Z,65.01
2019-02-08T00:53:06.627Z,65.01
2019-02-08T00:53:47.225Z,65.01
2019-02-08T00:54:27.837Z,65.59
2019-02-08T00:55:08.465Z,65.11
2019-02-08T00:55:49.075Z,65.59
2019-02-08T00:56:29.685Z,65.3
2019-02-08T00:57:10.305Z,65.01
2019-02-08T00:57:50.935Z,64.92
2019-02-08T00:58:31.552Z,64.72
2019-02-08T00:59:12.163Z,64.63
2019-02-08T00:59:52.773Z,64.63
2019-02-08T01:00:33.363Z,65.3
2019-02-08T01:01:13.963Z,64.82
2019-02-08T01:01:54.575Z,64.63
2019-02-08T01:02:35.189Z,64.53
2019-02-08T01:03:15.801Z,64.82
2019-02-08T01:03:56.409Z,64.82
2019-02-08T01:04:37.015Z,64.43
2019-02-08T01:05:17.605Z,64.82
2019-02-08T01:05:58.215Z,64.82
2019-02-08T01:06:38.810Z,64.63
2019-02-08T01:07:19.407Z,64.79
2019-02-08T01:08:00.003Z,64.63
2019-02-08T01:08:40.593Z,65.39
2019-02-08T01:09:21.193Z,64.63
2019-02-08T01:10:01.806Z,65.2
2019-02-08T01:10:42.411Z,64.72
2019-02-08T01:11:23.014Z,64.63
2019-02-08T01:12:03.623Z,64.72
2019-02-08T01:12:44.224Z,64.63
2019-02-08T01:13:24.829Z,64.53
2019-02-08T01:14:05.431Z,64.43
2019-02-08T01:14:46.033Z,64.92
2019-02-08T01:15:26.642Z,65.11
2019-02-08T01:16:07.243Z,64.53
2019-02-08T01:16:47.848Z,64.82
2019-02-08T01:17:28.449Z,65.08
2019-02-08T01:18:09.044Z,64.92
2019-02-08T01:18:49.653Z,64.72
2019-02-08T01:19:30.305Z,64.92
2019-02-08T01:20:10.887Z,64.63
2019-02-08T01:20:51.495Z,64.63
2019-02-08T01:21:32.101Z,64.5
2019-02-08T01:22:12.755Z,64.63
2019-02-08T01:22:53.359Z,64.53
2019-02-08T01:23:40.767Z,64.82
2019-02-08T01:24:14.561Z,64.82
2019-02-08T01:24:55.161Z,64.79
2019-02-08T01:25:35.760Z,64.79
2019-02-08T01:26:16.420Z,64.63
2019-02-08T01:26:57.080Z,64.92
2019-02-08T01:27:37.663Z,64.69
2019-02-08T01:28:18.294Z,64.82
2019-02-08T01:28:58.897Z,64.53
2019-02-08T01:29:39.569Z,64.79
2019-02-08T01:30:20.182Z,64.82
2019-02-08T01:31:00.773Z,64.69
2019-02-08T01:31:41.350Z,64.98
2019-02-08T01:32:21.977Z,65.01
2019-02-08T01:33:02.587Z,64.72
2019-02-08T01:33:43.215Z,64.98
2019-02-08T01:34:23.803Z,64.72
2019-02-08T01:35:04.391Z,65.11
2019-02-08T01:35:44.991Z,64.92
2019-02-08T01:36:25.591Z,65.11
2019-02-08T01:37:06.219Z,65.11
2019-02-08T01:37:46.855Z,64.89
2019-02-08T01:38:27.439Z,64.98
2019-02-08T01:39:08.033Z,64.79
2019-02-08T01:39:48.659Z,65.01
2019-02-08T01:40:29.253Z,65.11
2019-02-08T01:41:09.845Z,64.98
2019-02-08T01:41:50.453Z,65.17
2019-02-08T01:42:31.067Z,64.82
2019-02-08T01:43:11.663Z,64.98
2019-02-08T01:43:52.273Z,65.01
2019-02-08T01:44:32.865Z,65.01
2019-02-08T01:45:13.463Z,65.01
2019-02-08T01:45:54.069Z,64.98
2019-02-08T01:46:34.681Z,65.11
2019-02-08T01:47:15.277Z,64.89
2019-02-08T01:47:58.387Z,65.2
2019-02-08T01:48:38.977Z,65.11
2019-02-08T01:49:19.579Z,65.08
2019-02-08T01:50:00.175Z,65.01
2019-02-08T01:50:40.791Z,64.98
2019-02-08T01:51:21.379Z,65.01
2019-02-08T01:52:01.987Z,64.98
2019-02-08T01:52:42.603Z,65.08
2019-02-08T01:53:23.242Z,64.79
2019-02-08T01:54:03.859Z,65.08
2019-02-08T01:54:44.503Z,65.01
2019-02-08T01:55:25.113Z,65.01
2019-02-08T01:56:05.714Z,65.01
2019-02-08T01:56:46.301Z,64.69
2019-02-08T01:57:26.893Z,64.63
2019-02-08T01:58:07.509Z,64.92
2019-02-08T01:58:48.133Z,65.08
2019-02-08T01:59:28.733Z,65.08
2019-02-08T02:00:10.055Z,64.92
2019-02-08T02:00:49.966Z,65.11
2019-02-08T02:01:30.567Z,64.69
2019-02-08T02:02:11.176Z,64.98
2019-02-08T02:02:51.771Z,65.08
2019-02-08T02:03:32.369Z,64.98
2019-02-08T02:04:12.967Z,65.08
2019-02-08T02:04:53.568Z,65.01
2019-02-08T02:05:34.173Z,65.08
2019-02-08T02:06:14.759Z,65.11
2019-02-08T02:06:55.363Z,65.08
2019-02-08T02:07:35.979Z,65.01
2019-02-08T02:08:16.573Z,64.98
2019-02-08T02:08:57.176Z,64.79
2019-02-08T02:09:37.779Z,64.98
2019-02-08T02:10:18.381Z,64.79
2019-02-08T02:10:58.975Z,65.01
2019-02-08T02:11:39.569Z,64.59
2019-02-08T02:12:20.161Z,64.69
2019-02-08T02:13:00.749Z,65.11
2019-02-08T02:13:41.339Z,64.5
2019-02-08T02:14:21.942Z,64.98
2019-02-08T02:15:02.529Z,64.98
2019-02-08T02:15:43.151Z,64.98
2019-02-08T02:16:23.750Z,65.08
2019-02-08T02:17:04.353Z,65.01
2019-02-08T02:17:44.959Z,65.01
2019-02-08T02:18:25.553Z,65.11
2019-02-08T02:19:06.211Z,64.98
2019-02-08T02:19:46.809Z,64.98
2019-02-08T02:20:27.410Z,65.08
2019-02-08T02:21:08.012Z,65.17
2019-02-08T02:21:48.599Z,65.01
2019-02-08T02:22:29.199Z,64.69
2019-02-08T02:23:09.779Z,65.01
2019-02-08T02:23:55.937Z,65.08
2019-02-08T02:24:30.957Z,64.98
2019-02-08T02:25:11.561Z,65.17
2019-02-08T02:25:52.207Z,65.08
2019-02-08T02:26:32.809Z,64.79
2019-02-08T02:27:13.408Z,65.2
2019-02-08T02:27:54.017Z,64.98
2019-02-08T02:28:34.612Z,64.98
2019-02-08T02:29:15.222Z,65.08
2019-02-08T02:29:55.824Z,65.08
2019-02-08T02:30:36.454Z,65.11
2019-02-08T02:31:17.059Z,65.08
2019-02-08T02:31:57.666Z,64.98
2019-02-08T02:32:38.269Z,64.69
2019-02-08T02:33:18.872Z,65.08
2019-02-08T02:33:59.501Z,64.98
2019-02-08T02:34:40.094Z,64.69
2019-02-08T02:35:20.701Z,64.98
2019-02-08T02:36:01.317Z,64.69
2019-02-08T02:36:41.894Z,64.79
2019-02-08T02:37:22.486Z,64.98
2019-02-08T02:38:03.084Z,65.08
2019-02-08T02:38:43.703Z,65.26
2019-02-08T02:39:24.306Z,65.08
2019-02-08T02:40:04.907Z,65.08
2019-02-08T02:40:45.507Z,65.08
2019-02-08T02:41:26.123Z,65.08
2019-02-08T02:42:06.759Z,64.69
2019-02-08T02:42:47.374Z,65.08
2019-02-08T02:43:28.003Z,65.08
2019-02-08T02:44:08.605Z,64.69
2019-02-08T02:44:49.228Z,65.08
2019-02-08T02:45:29.821Z,64.89
2019-02-08T02:46:10.407Z,64.79
2019-02-08T02:46:51.006Z,65.08
2019-02-08T02:47:31.641Z,64.59
2019-02-08T02:48:12.211Z,64.98
2019-02-08T02:48:52.813Z,64.98
2019-02-08T02:49:33.403Z,65.46
2019-02-08T02:50:13.995Z,64.4
2019-02-08T02:50:54.591Z,64.98
2019-02-08T02:51:35.185Z,65.17
2019-02-08T02:52:15.771Z,64.69
2019-02-08T02:52:56.377Z,65.17
2019-02-08T02:53:36.959Z,65.17
2019-02-08T02:54:17.574Z,64.98
2019-02-08T02:54:58.221Z,65.17
2019-02-08T02:55:38.839Z,65.17
2019-02-08T02:56:19.449Z,64.79
2019-02-08T02:57:00.059Z,64.79
2019-02-08T02:57:40.667Z,64.69
2019-02-08T02:58:21.279Z,64.89
2019-02-08T02:59:01.885Z,64.98
2019-02-08T02:59:42.495Z,64.31
2019-02-08T03:00:23.150Z,64.69
2019-02-08T03:01:03.761Z,64.79
2019-02-08T03:01:44.376Z,64.69
2019-02-08T03:02:24.977Z,64.59
2019-02-08T03:03:05.585Z,64.5
2019-02-08T03:03:46.204Z,64.5
2019-02-08T03:04:26.801Z,64.5
2019-02-08T03:05:07.382Z,64.4
2019-02-08T03:05:47.989Z,64.5
2019-02-08T03:06:28.610Z,64.5
2019-02-08T03:07:09.208Z,64.5
2019-02-08T03:07:49.809Z,64.5
2019-02-08T03:08:30.413Z,64.4
2019-02-08T03:09:11.016Z,64.31
2019-02-08T03:09:51.609Z,64.59
2019-02-08T03:10:32.201Z,64.5
2019-02-08T03:11:12.791Z,64.5
2019-02-08T03:11:53.414Z,64.22
2019-02-08T03:12:34.009Z,64.4
2019-02-08T03:13:14.605Z,64.31
2019-02-08T03:13:55.226Z,64.4
2019-02-08T03:14:35.829Z,64.5
2019-02-08T03:15:16.434Z,64.4
2019-02-08T03:15:57.034Z,64.59
2019-02-08T03:16:37.626Z,64.4
2019-02-08T03:17:18.226Z,64.31
2019-02-08T03:17:58.829Z,64.31
2019-02-08T03:18:39.438Z,64.31
2019-02-08T03:19:20.035Z,64.22
2019-02-08T03:20:00.730Z,64.31
2019-02-08T03:20:41.236Z,64.22
2019-02-08T03:21:21.829Z,64.22
2019-02-08T03:22:02.442Z,64.22
2019-02-08T03:22:43.032Z,64.31
2019-02-08T03:23:23.644Z,64.31
2019-02-08T03:24:04.239Z,64.22
2019-02-08T03:24:44.888Z,64.31
2019-02-08T03:25:25.497Z,64.5
2019-02-08T03:26:06.106Z,64.22
2019-02-08T03:26:46.705Z,64.31
2019-02-08T03:27:27.332Z,64.12
2019-02-08T03:28:07.970Z,64.22
2019-02-08T03:28:48.583Z,64.22
2019-02-08T03:29:29.191Z,64.22
2019-02-08T03:30:09.816Z,64.02
2019-02-08T03:30:50.486Z,64.5
2019-02-08T03:31:31.016Z,64.31
2019-02-08T03:32:11.614Z,64.31
2019-02-08T03:32:52.203Z,64.4
2019-02-08T03:33:32.913Z,64.12
2019-02-08T03:34:13.435Z,64.31
2019-02-08T03:34:54.066Z,64.31
2019-02-08T03:35:34.690Z,64.31
2019-02-08T03:36:15.295Z,64.02
2019-02-08T03:36:55.893Z,64.02
2019-02-08T03:37:36.509Z,64.22
2019-02-08T03:38:17.128Z,64.4
2019-02-08T03:38:57.742Z,64.22
2019-02-08T03:39:38.335Z,64.5
2019-02-08T03:40:18.948Z,64.4
2019-02-08T03:40:59.543Z,64.59
2019-02-08T03:41:40.141Z,64.5
2019-02-08T03:42:20.729Z,64.59
2019-02-08T03:43:01.324Z,64.22
2019-02-08T03:43:41.913Z,64.59
2019-02-08T03:44:22.522Z,64.4
2019-02-08T03:45:03.114Z,64.59
2019-02-08T03:45:43.729Z,64.59
2019-02-08T03:46:24.360Z,64.59
2019-02-08T03:47:04.969Z,64.59
2019-02-08T03:47:45.563Z,64.4
2019-02-08T03:48:26.172Z,64.59
2019-02-08T03:49:06.774Z,64.5
2019-02-08T03:49:47.372Z,64.22
2019-02-08T03:50:27.977Z,64.5
2019-02-08T03:51:08.576Z,64.59
2019-02-08T03:51:49.169Z,64.59
2019-02-08T03:52:29.763Z,64.59
2019-02-08T03:53:10.371Z,64.4
2019-02-08T03:53:50.983Z,64.12
2019-02-08T03:54:31.590Z,64.59
2019-02-08T03:55:12.193Z,64.5
2019-02-08T03:55:58.249Z,64.02
2019-02-08T03:56:33.389Z,64.31
2019-02-08T03:57:13.987Z,64.59
2019-02-08T03:57:54.572Z,64.31
2019-02-08T03:58:35.173Z,64.12
2019-02-08T03:59:15.763Z,64.31
2019-02-08T03:59:56.349Z,64.4
2019-02-08T04:00:36.953Z,64.4
2019-02-08T04:01:17.535Z,64.5
2019-02-08T04:01:58.198Z,64.59
2019-02-08T04:02:38.887Z,64.4
2019-02-08T04:03:19.480Z,64.31
2019-02-08T04:04:00.103Z,64.5
2019-02-08T04:04:40.721Z,64.4
2019-02-08T04:05:21.335Z,64.4
2019-02-08T04:06:01.956Z,64.5
2019-02-08T04:06:42.547Z,64.12
2019-02-08T04:07:23.164Z,64.5
2019-02-08T04:08:03.765Z,64.31
2019-02-08T04:08:44.346Z,64.5
2019-02-08T04:09:24.932Z,63.92
2019-02-08T04:10:05.525Z,63.92
2019-02-08T04:10:46.135Z,63.92
2019-02-08T04:11:26.736Z,64.12
2019-02-08T04:12:07.335Z,64.12
2019-02-08T04:12:47.971Z,64.5
2019-02-08T04:13:28.590Z,64.59
2019-02-08T04:14:09.194Z,64.5
2019-02-08T04:14:49.798Z,64.22
2019-02-08T04:15:30.397Z,64.12
2019-02-08T04:16:11.027Z,64.5
2019-02-08T04:16:51.653Z,63.92
2019-02-08T04:17:32.310Z,64.22
2019-02-08T04:18:12.950Z,64.22
2019-02-08T04:18:53.531Z,63.92
2019-02-08T04:19:34.131Z,64.22
2019-02-08T04:20:14.727Z,64.22
2019-02-08T04:20:55.335Z,64.22
2019-02-08T04:21:35.924Z,63.92
2019-02-08T04:22:16.549Z,64.31
2019-02-08T04:22:57.144Z,64.02
2019-02-08T04:23:37.743Z,63.73
2019-02-08T04:24:18.337Z,63.83
2019-02-08T04:24:58.920Z,63.64
2019-02-08T04:25:39.507Z,63.83
2019-02-08T04:26:20.103Z,63.83
2019-02-08T04:27:00.699Z,63.83
2019-02-08T04:27:41.302Z,63.73
2019-02-08T04:28:21.912Z,64.12
2019-02-08T04:29:02.498Z,63.92
2019-02-08T04:29:43.116Z,64.22
2019-02-08T04:30:23.694Z,64.12
2019-02-08T04:31:04.312Z,63.64
2019-02-08T04:31:44.913Z,63.64
2019-02-08T04:32:25.497Z,63.83
2019-02-08T04:33:06.124Z,64.12
2019-02-08T04:33:46.717Z,63.73
2019-02-08T04:34:27.313Z,63.64
2019-02-08T04:35:07.916Z,63.73
2019-02-08T04:35:48.575Z,63.64
2019-02-08T04:36:29.158Z,63.83
2019-02-08T04:37:09.769Z,64.12
2019-02-08T04:37:50.385Z,64.31
2019-02-08T04:38:30.976Z,64.02
2019-02-08T04:39:11.587Z,64.02
2019-02-08T04:39:52.200Z,63.83
2019-02-08T04:40:32.794Z,63.83
2019-02-08T04:41:13.402Z,63.83
2019-02-08T04:41:54.051Z,63.83
2019-02-08T04:42:34.663Z,63.64
2019-02-08T04:43:15.254Z,63.92
2019-02-08T04:43:55.851Z,63.73
2019-02-08T04:44:36.454Z,63.83
2019-02-08T04:45:17.050Z,64.02
2019-02-08T04:45:57.647Z,63.83
2019-02-08T04:46:38.272Z,64.22
2019-02-08T04:47:18.862Z,63.83
2019-02-08T04:47:59.476Z,63.83
2019-02-08T04:48:40.130Z,63.83
2019-02-08T04:49:20.723Z,63.83
2019-02-08T04:50:01.314Z,64.02
2019-02-08T04:50:41.907Z,63.83
2019-02-08T04:51:22.506Z,63.73
2019-02-08T04:52:03.090Z,63.73
2019-02-08T04:52:44.433Z,63.92
2019-02-08T04:53:25.031Z,63.73
2019-02-08T04:54:05.624Z,64.02
2019-02-08T04:54:46.224Z,63.64
2019-02-08T04:55:26.829Z,64.02
2019-02-08T04:56:07.412Z,64.02
2019-02-08T04:56:48.010Z,63.92
2019-02-08T04:57:28.598Z,63.92
2019-02-08T04:58:09.200Z,63.83
2019-02-08T04:58:49.803Z,63.64
2019-02-08T04:59:30.420Z,63.64
2019-02-08T05:00:11.059Z,63.92
2019-02-08T05:00:51.666Z,64.12
2019-02-08T05:01:32.268Z,63.92
2019-02-08T05:02:12.872Z,63.92
2019-02-08T05:02:53.454Z,63.92
2019-02-08T05:03:34.051Z,64.12
2019-02-08T05:04:14.647Z,63.73
2019-02-08T05:04:55.237Z,64.02
2019-02-08T05:05:35.842Z,63.92
2019-02-08T05:06:16.439Z,63.92
2019-02-08T05:06:57.039Z,63.92
2019-02-08T05:07:37.628Z,63.73
2019-02-08T05:08:18.232Z,63.92
2019-02-08T05:08:58.822Z,64.02
2019-02-08T05:09:39.407Z,64.02
2019-02-08T05:10:20.013Z,64.02
2019-02-08T05:11:00.621Z,64.22
2019-02-08T05:11:41.211Z,64.02
2019-02-08T05:12:21.810Z,63.92
2019-02-08T05:13:02.408Z,64.12
2019-02-08T05:13:43.003Z,63.92
2019-02-08T05:14:23.619Z,63.73
2019-02-08T05:15:04.215Z,64.02
2019-02-08T05:15:44.805Z,63.92
2019-02-08T05:18:05.312Z,63.54
2019-02-08T05:18:45.889Z,63.73
2019-02-08T05:19:26.494Z,64.02
2019-02-08T05:20:07.102Z,64.02
2019-02-08T05:20:47.704Z,63.73
2019-02-08T05:21:28.300Z,64.02
2019-02-08T05:22:08.890Z,63.73
2019-02-08T05:22:49.497Z,63.64
2019-02-08T05:23:30.106Z,64.02
2019-02-08T05:24:10.702Z,63.73
2019-02-08T05:24:51.309Z,63.54
2019-02-08T05:25:31.906Z,64.12
2019-02-08T05:26:12.536Z,64.02
2019-02-08T05:26:53.186Z,63.73
2019-02-08T05:27:33.788Z,63.54
2019-02-08T05:28:14.391Z,63.73
2019-02-08T05:28:54.992Z,63.54
2019-02-08T05:29:35.593Z,63.35
2019-02-08T05:30:16.196Z,63.64
2019-02-08T05:30:56.796Z,63.45
2019-02-08T05:31:37.396Z,63.45
2019-02-08T05:32:17.984Z,63.26
2019-02-08T05:32:58.572Z,63.45
2019-02-08T05:33:39.169Z,63.45
2019-02-08T05:34:19.772Z,63.35
2019-02-08T05:35:00.359Z,63.45
2019-02-08T05:35:40.963Z,63.26
2019-02-08T05:36:21.565Z,63.35
2019-02-08T05:37:02.151Z,63.35
2019-02-08T05:37:42.759Z,63.35
2019-02-08T05:38:23.348Z,63.35
2019-02-08T05:39:03.947Z,63.35
2019-02-08T05:39:44.555Z,63.73
2019-02-08T05:40:25.158Z,63.16
2019-02-08T05:41:05.752Z,63.45
2019-02-08T05:41:46.340Z,63.54
2019-02-08T05:42:26.933Z,63.45
2019-02-08T05:43:07.524Z,63.45
2019-02-08T05:43:48.128Z,63.54
2019-02-08T05:44:28.719Z,63.54
2019-02-08T05:45:09.316Z,63.45
2019-02-08T05:45:49.904Z,63.16
2019-02-08T05:46:31.059Z,63.35
2019-02-08T05:47:11.105Z,63.35
2019-02-08T05:47:51.703Z,63.35
2019-02-08T05:48:32.286Z,63.73
2019-02-08T05:49:12.884Z,63.45
2019-02-08T05:49:53.484Z,63.35
2019-02-08T05:50:34.065Z,63.45
2019-02-08T05:51:14.679Z,63.45
2019-02-08T05:51:55.266Z,63.16
2019-02-08T05:52:35.862Z,63.45
2019-02-08T05:53:16.454Z,63.54
2019-02-08T05:53:57.051Z,63.45
2019-02-08T05:54:37.669Z,63.54
2019-02-08T05:55:18.254Z,63.54
2019-02-08T05:55:58.858Z,63.45
2019-02-08T05:56:39.443Z,63.35
2019-02-08T05:57:20.041Z,63.54
2019-02-08T05:58:00.647Z,63.54
2019-02-08T05:58:41.244Z,63.45
2019-02-08T05:59:21.838Z,63.45
2019-02-08T06:00:02.449Z,63.45
2019-02-08T06:00:43.047Z,63.45
2019-02-08T06:01:23.630Z,63.26
2019-02-08T06:02:04.231Z,63.64
2019-02-08T06:02:44.840Z,63.45
2019-02-08T06:03:25.430Z,63.64
2019-02-08T06:04:06.044Z,63.35
2019-02-08T06:04:46.653Z,63.45
2019-02-08T06:05:27.256Z,63.35
2019-02-08T06:06:07.862Z,63.45
2019-02-08T06:06:48.462Z,63.26
2019-02-08T06:07:29.069Z,63.54
2019-02-08T06:08:09.673Z,63.64
2019-02-08T06:08:50.277Z,63.54
2019-02-08T06:09:30.889Z,63.64
2019-02-08T06:10:11.464Z,63.54
2019-02-08T06:10:52.076Z,63.73
2019-02-08T06:11:33.078Z,63.45
2019-02-08T06:12:13.330Z,63.54
2019-02-08T06:12:53.920Z,63.54
2019-02-08T06:13:34.527Z,63.64
2019-02-08T06:14:15.143Z,63.35
2019-02-08T06:14:55.741Z,63.54
2019-02-08T06:15:36.400Z,63.54
2019-02-08T06:16:16.992Z,63.45
2019-02-08T06:16:57.584Z,63.45
2019-02-08T06:17:38.194Z,63.54
2019-02-08T06:18:18.776Z,63.45
2019-02-08T06:18:59.396Z,63.26
2019-02-08T06:19:39.993Z,63.54
2019-02-08T06:20:20.576Z,63.35
2019-02-08T06:21:01.172Z,63.06
2019-02-08T06:21:41.783Z,62.96
2019-02-08T06:22:22.402Z,62.87
2019-02-08T06:23:03.029Z,62.87
2019-02-08T06:23:43.621Z,63.06
2019-02-08T06:24:24.300Z,63.06
2019-02-08T06:25:04.980Z,63.06
2019-02-08T06:25:45.496Z,63.16
2019-02-08T06:26:26.124Z,63.06
2019-02-08T06:27:06.732Z,62.96
2019-02-08T06:27:47.329Z,62.77
2019-02-08T06:28:27.914Z,62.96
2019-02-08T06:29:08.523Z,63.16
2019-02-08T06:29:49.124Z,63.16
2019-02-08T06:30:29.730Z,63.26
2019-02-08T06:31:10.320Z,63.26
2019-02-08T06:31:50.932Z,63.16
2019-02-08T06:32:31.530Z,63.26
2019-02-08T06:33:12.124Z,62.68
2019-02-08T06:33:52.704Z,62.96
2019-02-08T06:34:33.301Z,63.26
2019-02-08T06:35:13.916Z,63.26
2019-02-08T06:35:54.512Z,63.26
2019-02-08T06:36:35.120Z,63.26
2019-02-08T06:37:15.716Z,63.26
2019-02-08T06:37:56.318Z,62.96
2019-02-08T06:38:36.900Z,63.16
2019-02-08T06:39:17.486Z,62.96
2019-02-08T06:39:58.073Z,63.06
2019-02-08T06:40:38.664Z,63.16
2019-02-08T06:41:19.265Z,63.16
2019-02-08T06:41:59.880Z,62.96
2019-02-08T06:42:40.488Z,63.06
2019-02-08T06:43:21.090Z,63.16
2019-02-08T06:44:01.706Z,63.26
2019-02-08T06:44:42.287Z,62.96
2019-02-08T06:45:22.887Z,62.96
2019-02-08T06:46:03.486Z,62.68
2019-02-08T06:46:44.090Z,63.16
2019-02-08T06:47:24.709Z,63.16
2019-02-08T06:48:05.294Z,63.16
2019-02-08T06:48:45.892Z,63.26
2019-02-08T06:49:26.479Z,63.06
2019-02-08T06:50:07.072Z,63.26
2019-02-08T06:50:47.683Z,63.26
2019-02-08T06:51:28.308Z,62.96
2019-02-08T06:52:08.906Z,63.16
2019-02-08T06:52:49.506Z,63.26
2019-02-08T06:53:30.108Z,63.26
2019-02-08T06:54:10.702Z,63.16
2019-02-08T06:54:51.299Z,63.16
2019-02-08T06:55:31.910Z,63.16
2019-02-08T06:56:12.531Z,63.26
2019-02-08T06:56:53.127Z,63.26
2019-02-08T06:57:33.722Z,63.26
2019-02-08T06:58:14.788Z,63.26
2019-02-08T06:58:54.920Z,63.16
2019-02-08T06:59:35.518Z,63.35
2019-02-08T07:00:16.122Z,63.45
2019-02-08T07:00:56.721Z,63.26
2019-02-08T07:01:37.310Z,63.06
2019-02-08T07:02:17.921Z,63.26
2019-02-08T07:02:58.536Z,63.06
2019-02-08T07:03:39.120Z,63.06
2019-02-08T07:04:19.718Z,63.26
2019-02-08T07:05:00.307Z,63.35
2019-02-08T07:05:40.886Z,62.96
2019-02-08T07:06:21.470Z,63.16
2019-02-08T07:07:02.062Z,63.06
2019-02-08T07:07:42.658Z,63.35
2019-02-08T07:08:23.244Z,63.26
2019-02-08T07:09:03.858Z,62.87
2019-02-08T07:09:44.443Z,63.26
2019-02-08T07:10:25.043Z,63.26
2019-02-08T07:11:05.622Z,63.45
2019-02-08T07:11:46.206Z,63.16
2019-02-08T07:12:26.804Z,63.26
2019-02-08T07:13:07.407Z,63.26
2019-02-08T07:13:48.001Z,63.26
2019-02-08T07:14:28.592Z,63.26
2019-02-08T07:15:09.243Z,63.16
2019-02-08T07:15:49.816Z,63.26
2019-02-08T07:16:30.426Z,62.96
2019-02-08T07:17:11.040Z,63.42
2019-02-08T07:17:51.639Z,62.77
2019-02-08T07:18:32.243Z,62.77
2019-02-08T07:19:12.830Z,62.68
2019-02-08T07:19:53.422Z,62.59
2019-02-08T07:20:34.022Z,62.49
2019-02-08T07:21:14.626Z,62.68
2019-02-08T07:21:55.284Z,62.39
2019-02-08T07:22:35.913Z,62.1
2019-02-08T07:23:16.460Z,62.2
2019-02-08T07:23:57.048Z,62.39
2019-02-08T07:24:37.644Z,62.2
2019-02-08T07:25:18.891Z,62.68
2019-02-08T07:25:58.872Z,62.49
2019-02-08T07:26:39.486Z,62.59
2019-02-08T07:27:20.103Z,62.39
2019-02-08T07:28:00.689Z,62.2
2019-02-08T07:28:41.270Z,62.1
2019-02-08T07:29:21.858Z,61.82
2019-02-08T07:30:02.462Z,62.1
2019-02-08T07:30:43.084Z,62.2
2019-02-08T07:31:23.668Z,61.82
2019-02-08T07:32:04.264Z,61.72
2019-02-08T07:32:44.866Z,61.63
2019-02-08T07:33:25.462Z,62.1
2019-02-08T07:34:06.054Z,61.91
2019-02-08T07:34:46.662Z,62.1
2019-02-08T07:35:27.260Z,62.2
2019-02-08T07:36:07.864Z,62.01
2019-02-08T07:36:48.474Z,62.3
2019-02-08T07:37:29.104Z,62.2
2019-02-08T07:38:09.674Z,62.2
2019-02-08T07:38:50.300Z,61.82
2019-02-08T07:39:30.941Z,61.91
2019-02-08T07:40:11.520Z,61.91
2019-02-08T07:40:52.156Z,61.91
2019-02-08T07:41:32.770Z,61.72
2019-02-08T07:42:13.366Z,61.82
2019-02-08T07:42:53.952Z,61.91
2019-02-08T07:43:34.546Z,62.3
2019-02-08T07:44:15.138Z,61.53
2019-02-08T07:44:55.735Z,61.43
2019-02-08T07:45:36.336Z,61.43
2019-02-08T07:46:16.915Z,61.24
2019-02-08T07:46:57.502Z,61.63
2019-02-08T07:47:38.094Z,61.15
2019-02-08T07:48:18.708Z,61.34
2019-02-08T07:48:59.308Z,61.24
2019-02-08T07:49:39.901Z,61.53
2019-02-08T07:50:20.500Z,62.01
2019-02-08T07:51:01.087Z,61.91
2019-02-08T07:51:41.690Z,61.82
2019-02-08T07:52:22.310Z,62.01
2019-02-08T07:53:02.902Z,61.15
2019-02-08T07:53:43.520Z,60.96
2019-02-08T07:54:24.122Z,61.72
2019-02-08T07:55:04.734Z,61.24
2019-02-08T07:55:45.318Z,61.43
2019-02-08T07:56:25.935Z,61.24
2019-02-08T07:57:06.510Z,61.63
2019-02-08T07:57:47.116Z,61.24
2019-02-08T07:58:27.736Z,61.43
2019-02-08T07:59:08.325Z,62.01
2019-02-08T07:59:48.930Z,61.53
2019-02-08T08:00:29.519Z,61.24
2019-02-08T08:01:10.110Z,61.72
2019-02-08T08:01:50.707Z,61.34
2019-02-08T08:02:31.316Z,61.24
2019-02-08T08:03:11.925Z,61.91
2019-02-08T08:03:52.510Z,61.53
2019-02-08T08:04:33.122Z,61.43
2019-02-08T08:05:13.724Z,61.72
2019-02-08T08:05:54.337Z,60.96
2019-02-08T08:06:34.940Z,62.01
2019-02-08T08:07:15.544Z,61.24
2019-02-08T08:07:56.148Z,61.24
2019-02-08T08:08:36.744Z,61.63
2019-02-08T08:09:17.350Z,61.53
2019-02-08T08:09:57.953Z,61.24
2019-02-08T08:10:38.570Z,61.63
2019-02-08T08:11:19.169Z,61.53
2019-02-08T08:11:59.761Z,62.01
2019-02-08T08:12:40.352Z,61.24
2019-02-08T08:13:20.966Z,61.24
2019-02-08T08:14:01.578Z,61.53
2019-02-08T08:14:42.178Z,61.15
2019-02-08T08:15:22.765Z,61.34
2019-02-08T08:16:03.371Z,61.53
2019-02-08T08:16:43.969Z,61.34
2019-02-08T08:17:24.577Z,61.34
2019-02-08T08:18:05.170Z,61.34
2019-02-08T08:18:45.780Z,62.01
2019-02-08T08:19:26.374Z,61.43
2019-02-08T08:20:06.969Z,61.24
2019-02-08T08:20:47.613Z,61.43
2019-02-08T08:21:28.228Z,61.43
2019-02-08T08:22:08.833Z,61.43
2019-02-08T08:22:49.444Z,61.43
2019-02-08T08:23:30.035Z,61.24
2019-02-08T08:24:10.671Z,61.53
2019-02-08T08:24:51.300Z,61.24
2019-02-08T08:25:33.980Z,61.53
2019-02-08T08:26:12.521Z,61.24
2019-02-08T08:26:53.133Z,61.24
2019-02-08T08:27:33.748Z,61.34
2019-02-08T08:28:14.378Z,61.24
2019-02-08T08:28:54.966Z,61.43
2019-02-08T08:29:35.559Z,61.34
2019-02-08T08:30:16.163Z,61.34
2019-02-08T08:30:56.758Z,61.72
2019-02-08T08:31:37.348Z,61.72
2019-02-08T08:32:17.996Z,61.53
2019-02-08T08:32:58.580Z,61.24
2019-02-08T08:33:39.220Z,61.43
2019-02-08T08:34:19.857Z,61.24
2019-02-08T08:35:00.456Z,61.15
2019-02-08T08:35:41.055Z,61.43
2019-02-08T08:36:21.677Z,61.63
2019-02-08T08:37:02.287Z,61.24
2019-02-08T08:37:42.879Z,61.24
2019-02-08T08:38:23.479Z,61.43
2019-02-08T08:39:04.976Z,61.34
2019-02-08T08:39:44.678Z,61.24
2019-02-08T08:40:25.289Z,61.53
2019-02-08T08:41:05.885Z,61.34
2019-02-08T08:41:46.497Z,61.24
2019-02-08T08:42:27.096Z,61.63
2019-02-08T08:43:07.760Z,61.43
2019-02-08T08:43:48.360Z,61.63
2019-02-08T08:44:28.951Z,61.05
2019-02-08T08:45:09.556Z,61.43
2019-02-08T08:45:50.155Z,61.63
2019-02-08T08:46:30.754Z,61.24